sensor_id;sensor_type;location;lat;lon;timestamp;pressure;altitude;pressure_sealevel;temperature;humidity
46408;BME280;32110;45.724;21.276;2023-03-24T01:24:30;100460.56;;;7.40;nan
46408;BME280;32110;45.724;21.276;2023-03-24T01:26:55;100440.03;;;7.31;nan
46408;BME280;32110;45.724;21.276;2023-03-24T01:29:21;100534.13;;;7.85;nan
46408;BME280;32110;45.724;21.276;2023-03-24T01:31:46;100448.69;;;7.31;nan
46408;BME280;32110;45.724;21.276;2023-03-24T01:34:11;100440.63;;;7.26;nan
46408;BME280;32110;45.724;21.276;2023-03-24T01:36:37;100445.06;;;7.26;nan
46408;BME280;32110;45.724;21.276;2023-03-24T01:39:03;100447.06;;;7.23;nan
46408;BME280;32110;45.724;21.276;2023-03-24T01:41:33;100445.88;;;7.26;nan
46408;BME280;32110;45.724;21.276;2023-03-24T01:43:59;100430.94;;;7.20;nan
46408;BME280;32110;45.724;21.276;2023-03-24T01:46:25;100449.69;;;7.23;nan
46408;BME280;32110;45.724;21.276;2023-03-24T01:49:05;100448.28;;;7.21;nan
46408;BME280;32110;45.724;21.276;2023-03-24T01:51:35;100447.88;;;7.24;nan
46408;BME280;32110;45.724;21.276;2023-03-24T01:54:21;100433.78;;;7.18;nan
46408;BME280;32110;45.724;21.276;2023-03-24T01:56:51;100441.00;;;7.23;nan
46408;BME280;32110;45.724;21.276;2023-03-24T01:59:23;100436.19;;;7.20;nan
46408;BME280;32110;45.724;21.276;2023-03-24T02:01:50;100440.41;;;7.14;nan
46408;BME280;32110;45.724;21.276;2023-03-24T02:04:16;100423.91;;;7.07;nan
46408;BME280;32110;45.724;21.276;2023-03-24T02:06:43;100443.22;;;7.13;nan
46408;BME280;32110;45.724;21.276;2023-03-24T02:09:11;100431.53;;;7.09;nan
46408;BME280;32110;45.724;21.276;2023-03-24T02:11:38;100445.66;;;7.08;nan
46408;BME280;32110;45.724;21.276;2023-03-24T02:14:05;100442.22;;;7.00;nan
46408;BME280;32110;45.724;21.276;2023-03-24T02:41:13;100440.19;;;6.82;nan
46408;BME280;32110;45.724;21.276;2023-03-24T02:43:57;100444.59;;;6.82;nan
46408;BME280;32110;45.724;21.276;2023-03-24T02:46:47;100433.75;;;6.78;nan
46408;BME280;32110;45.724;21.276;2023-03-24T02:57:21;100426.88;;;6.64;nan
46408;BME280;32110;45.724;21.276;2023-03-24T03:00:03;100421.22;;;6.60;nan
46408;BME280;32110;45.724;21.276;2023-03-24T03:02:38;100422.03;;;6.54;nan
46408;BME280;32110;45.724;21.276;2023-03-24T03:05:45;100424.63;;;6.54;nan
46408;BME280;32110;45.724;21.276;2023-03-24T03:08:15;100409.31;;;6.45;nan
46408;BME280;32110;45.724;21.276;2023-03-24T03:10:44;100414.91;;;6.42;nan
46408;BME280;32110;45.724;21.276;2023-03-24T03:13:15;100417.34;;;6.43;nan
46408;BME280;32110;45.724;21.276;2023-03-24T03:15:48;100424.41;;;6.43;nan
46408;BME280;32110;45.724;21.276;2023-03-24T03:18:22;100435.66;;;6.43;nan
46408;BME280;32110;45.724;21.276;2023-03-24T03:20:51;100407.25;;;6.33;nan
46408;BME280;32110;45.724;21.276;2023-03-24T03:23:33;100411.91;;;6.38;nan
46408;BME280;32110;45.724;21.276;2023-03-24T03:26:02;100412.69;;;6.38;nan
46408;BME280;32110;45.724;21.276;2023-03-24T03:28:31;100415.72;;;6.35;nan
46408;BME280;32110;45.724;21.276;2023-03-24T03:31:00;100410.91;;;6.32;nan
46408;BME280;32110;45.724;21.276;2023-03-24T03:33:37;100409.66;;;6.28;nan
46408;BME280;32110;45.724;21.276;2023-03-24T03:36:25;100402.81;;;6.27;nan
46408;BME280;32110;45.724;21.276;2023-03-24T03:41:32;100399.00;;;6.23;nan
46408;BME280;32110;45.724;21.276;2023-03-24T03:43:59;100418.91;;;6.24;nan
46408;BME280;32110;45.724;21.276;2023-03-24T03:46:25;100422.56;;;6.30;nan
46408;BME280;32110;45.724;21.276;2023-03-24T03:48:52;100419.69;;;6.25;nan
46408;BME280;32110;45.724;21.276;2023-03-24T03:51:17;100409.81;;;6.20;nan
46408;BME280;32110;45.724;21.276;2023-03-24T03:56:18;100419.88;;;6.16;nan
46408;BME280;32110;45.724;21.276;2023-03-24T03:58:44;100419.66;;;6.11;nan
46408;BME280;32110;45.724;21.276;2023-03-24T04:01:12;100412.19;;;6.02;nan
46408;BME280;32110;45.724;21.276;2023-03-24T04:16:58;100409.25;;;5.83;nan
46408;BME280;32110;45.724;21.276;2023-03-24T04:24:55;100405.22;;;5.81;nan
46408;BME280;32110;45.724;21.276;2023-03-24T04:30:05;100413.50;;;5.91;nan
46408;BME280;32110;45.724;21.276;2023-03-24T04:32:47;100418.16;;;5.95;nan
46408;BME280;32110;45.724;21.276;2023-03-24T04:35:21;100419.59;;;5.98;nan
46408;BME280;32110;45.724;21.276;2023-03-24T04:37:57;100410.75;;;5.99;nan
46408;BME280;32110;45.724;21.276;2023-03-24T04:40:28;100406.13;;;5.94;nan
46408;BME280;32110;45.724;21.276;2023-03-24T04:42:59;100401.84;;;5.93;nan
46408;BME280;32110;45.724;21.276;2023-03-24T04:45:27;100404.44;;;5.93;nan
46408;BME280;32110;45.724;21.276;2023-03-24T04:47:57;100405.03;;;5.89;nan
46408;BME280;32110;45.724;21.276;2023-03-24T04:50:49;100411.28;;;5.88;nan
46408;BME280;32110;45.724;21.276;2023-03-24T05:39:23;100429.56;;;6.29;nan
46408;BME280;32110;45.724;21.276;2023-03-24T05:41:48;100425.34;;;6.28;nan
46408;BME280;32110;45.724;21.276;2023-03-24T05:44:13;100432.22;;;6.36;nan
46408;BME280;32110;45.724;21.276;2023-03-24T05:46:39;100431.81;;;6.39;nan
46408;BME280;32110;45.724;21.276;2023-03-24T05:49:06;100435.25;;;6.46;nan
46408;BME280;32110;45.724;21.276;2023-03-24T05:51:31;100427.03;;;6.49;nan
46408;BME280;32110;45.724;21.276;2023-03-24T05:53:57;100421.22;;;6.54;nan
46408;BME280;32110;45.724;21.276;2023-03-24T05:56:22;100433.31;;;6.62;nan
46408;BME280;32110;45.724;21.276;2023-03-24T05:58:48;100439.34;;;6.69;nan
46408;BME280;32110;45.724;21.276;2023-03-24T06:01:15;100440.78;;;6.78;nan
46408;BME280;32110;45.724;21.276;2023-03-24T06:03:42;100432.13;;;6.84;nan
46408;BME280;32110;45.724;21.276;2023-03-24T06:06:08;100441.22;;;6.95;nan
46408;BME280;32110;45.724;21.276;2023-03-24T06:08:39;100426.91;;;6.97;nan
46408;BME280;32110;45.724;21.276;2023-03-24T06:11:05;100441.81;;;7.10;nan
46408;BME280;32110;45.724;21.276;2023-03-24T06:13:30;100442.63;;;7.17;nan
46408;BME280;32110;45.724;21.276;2023-03-24T06:15:57;100427.94;;;7.16;nan
46408;BME280;32110;45.724;21.276;2023-03-24T06:18:24;100433.97;;;7.37;nan
46408;BME280;32110;45.724;21.276;2023-03-24T06:20:51;100436.19;;;7.40;nan
46408;BME280;32110;45.724;21.276;2023-03-24T06:23:22;100406.34;;;7.28;nan
46408;BME280;32110;45.724;21.276;2023-03-24T06:25:50;100436.56;;;7.57;nan
46408;BME280;32110;45.724;21.276;2023-03-24T06:28:16;100441.38;;;7.73;nan
46408;BME280;32110;45.724;21.276;2023-03-24T06:30:43;100428.25;;;7.80;nan
46408;BME280;32110;45.724;21.276;2023-03-24T06:33:09;100440.53;;;7.93;nan
46408;BME280;32110;45.724;21.276;2023-03-24T06:35:36;100445.31;;;8.09;nan
46408;BME280;32110;45.724;21.276;2023-03-24T06:38:01;100425.53;;;8.06;nan
46408;BME280;32110;45.724;21.276;2023-03-24T06:40:27;100440.22;;;8.21;nan
46408;BME280;32110;45.724;21.276;2023-03-24T06:42:52;100448.03;;;8.34;nan
46408;BME280;32110;45.724;21.276;2023-03-24T06:45:18;100448.22;;;8.39;nan
46408;BME280;32110;45.724;21.276;2023-03-24T06:47:43;100442.34;;;8.50;nan
46408;BME280;32110;45.724;21.276;2023-03-24T06:50:09;100435.84;;;8.60;nan
46408;BME280;32110;45.724;21.276;2023-03-24T06:52:35;100451.47;;;8.80;nan
46408;BME280;32110;45.724;21.276;2023-03-24T06:55:01;100446.47;;;9.03;nan
46408;BME280;32110;45.724;21.276;2023-03-24T06:57:26;100453.06;;;9.12;nan
46408;BME280;32110;45.724;21.276;2023-03-24T06:59:53;100434.59;;;9.19;nan
46408;BME280;32110;45.724;21.276;2023-03-24T07:02:19;100438.56;;;9.28;nan
46408;BME280;32110;45.724;21.276;2023-03-24T07:04:44;100451.78;;;9.47;nan
46408;BME280;32110;45.724;21.276;2023-03-24T07:07:10;100453.75;;;9.51;nan
46408;BME280;32110;45.724;21.276;2023-03-24T07:09:37;100446.03;;;9.56;nan
46408;BME280;32110;45.724;21.276;2023-03-24T07:12:04;100451.72;;;9.72;nan
46408;BME280;32110;45.724;21.276;2023-03-24T07:14:30;100446.19;;;9.80;nan
46408;BME280;32110;45.724;21.276;2023-03-24T07:16:55;100450.75;;;9.91;nan
46408;BME280;32110;45.724;21.276;2023-03-24T07:19:21;100458.03;;;10.08;nan
46408;BME280;32110;45.724;21.276;2023-03-24T07:21:47;100455.97;;;10.10;nan
46408;BME280;32110;45.724;21.276;2023-03-24T07:24:15;100455.47;;;10.19;nan
46408;BME280;32110;45.724;21.276;2023-03-24T07:26:41;100461.63;;;10.32;nan
46408;BME280;32110;45.724;21.276;2023-03-24T07:29:06;100427.91;;;10.22;nan
46408;BME280;32110;45.724;21.276;2023-03-24T07:31:32;100465.59;;;10.53;nan
46408;BME280;32110;45.724;21.276;2023-03-24T07:34:02;100468.78;;;10.73;nan
46408;BME280;32110;45.724;21.276;2023-03-24T07:36:27;100461.94;;;10.84;nan
46408;BME280;32110;45.724;21.276;2023-03-24T07:53:24;100462.59;;;12.04;nan
46408;BME280;32110;45.724;21.276;2023-03-24T08:44:27;100434.22;;;14.58;nan
46408;BME280;32110;45.724;21.276;2023-03-24T08:51:44;100400.63;;;14.96;nan
46408;BME280;32110;45.724;21.276;2023-03-24T08:54:09;100404.19;;;15.12;nan
46408;BME280;32110;45.724;21.276;2023-03-24T08:56:37;100402.94;;;15.24;nan
46408;BME280;32110;45.724;21.276;2023-03-24T08:59:03;100398.75;;;15.34;nan
46408;BME280;32110;45.724;21.276;2023-03-24T09:21:01;100378.47;;;16.53;nan
46408;BME280;32110;45.724;21.276;2023-03-24T10:10:40;100315.72;;;18.53;nan
46408;BME280;32110;45.724;21.276;2023-03-24T10:25:59;100312.13;;;19.02;nan
46408;BME280;32110;45.724;21.276;2023-03-24T10:31:37;100280.66;;;19.23;nan
46408;BME280;32110;45.724;21.276;2023-03-24T10:34:03;100265.34;;;19.28;nan
46408;BME280;32110;45.724;21.276;2023-03-24T10:36:29;100250.50;;;19.41;nan
46408;BME280;32110;45.724;21.276;2023-03-24T10:38:55;100288.25;;;19.53;nan
46408;BME280;32110;45.724;21.276;2023-03-24T10:43:49;100260.91;;;19.62;nan
46408;BME280;32110;45.724;21.276;2023-03-24T10:51:20;100261.31;;;19.74;nan
46408;BME280;32110;45.724;21.276;2023-03-24T10:53:47;100326.22;;;19.93;nan
46408;BME280;32110;45.724;21.276;2023-03-24T10:56:18;100253.72;;;20.00;nan
46408;BME280;32110;45.724;21.276;2023-03-24T10:59:01;100216.38;;;19.95;nan
46408;BME280;32110;45.724;21.276;2023-03-24T11:01:28;100255.94;;;20.12;nan
46408;BME280;32110;45.724;21.276;2023-03-24T11:04:04;100239.53;;;20.18;nan
46408;BME280;32110;45.724;21.276;2023-03-24T11:06:32;100246.06;;;20.26;nan
46408;BME280;32110;45.724;21.276;2023-03-24T11:09:18;100249.25;;;20.28;nan
46408;BME280;32110;45.724;21.276;2023-03-24T11:11:44;100241.56;;;20.40;nan
46408;BME280;32110;45.724;21.276;2023-03-24T11:14:30;100214.44;;;20.47;nan
46408;BME280;32110;45.724;21.276;2023-03-24T11:17:11;100235.41;;;20.54;nan
46408;BME280;32110;45.724;21.276;2023-03-24T11:19:49;100219.28;;;20.59;nan
46408;BME280;32110;45.724;21.276;2023-03-24T11:22:15;100232.59;;;20.64;nan
46408;BME280;32110;45.724;21.276;2023-03-24T11:24:41;100229.31;;;20.67;nan
46408;BME280;32110;45.724;21.276;2023-03-24T11:27:11;100232.59;;;20.78;nan
46408;BME280;32110;45.724;21.276;2023-03-24T11:32:12;100205.81;;;20.92;nan
46408;BME280;32110;45.724;21.276;2023-03-24T11:34:44;100174.88;;;20.99;nan
46408;BME280;32110;45.724;21.276;2023-03-24T11:37:12;100188.75;;;21.01;nan
46408;BME280;32110;45.724;21.276;2023-03-24T11:39:39;100237.16;;;21.05;nan
46408;BME280;32110;45.724;21.276;2023-03-24T11:42:13;100185.28;;;21.15;nan
46408;BME280;32110;45.724;21.276;2023-03-24T11:44:50;100182.78;;;21.18;nan
46408;BME280;32110;45.724;21.276;2023-03-24T12:00:53;100142.47;;;21.37;nan
46408;BME280;32110;45.724;21.276;2023-03-24T12:11:43;100124.53;;;21.60;nan
46408;BME280;32110;45.724;21.276;2023-03-24T12:14:19;100139.50;;;21.61;nan
46408;BME280;32110;45.724;21.276;2023-03-24T12:22:57;100124.00;;;21.72;nan
46408;BME280;32110;45.724;21.276;2023-03-24T12:25:27;100127.63;;;21.76;nan
46408;BME280;32110;45.724;21.276;2023-03-24T12:30:58;100081.69;;;21.92;nan
46408;BME280;32110;45.724;21.276;2023-03-24T12:36:39;100107.13;;;22.03;nan
46408;BME280;32110;45.724;21.276;2023-03-24T12:39:14;100101.13;;;22.06;nan
46408;BME280;32110;45.724;21.276;2023-03-24T12:41:56;100093.44;;;22.13;nan
46408;BME280;32110;45.724;21.276;2023-03-24T12:55:41;100032.94;;;22.29;nan
46408;BME280;32110;45.724;21.276;2023-03-24T13:01:30;100059.91;;;22.33;nan
46408;BME280;32110;45.724;21.276;2023-03-24T13:04:15;100044.59;;;22.34;nan
46408;BME280;32110;45.724;21.276;2023-03-24T13:07:01;100054.41;;;22.38;nan
46408;BME280;32110;45.724;21.276;2023-03-24T13:09:36;100037.81;;;22.36;nan
46408;BME280;32110;45.724;21.276;2023-03-24T13:12:24;100046.09;;;22.48;nan
46408;BME280;32110;45.724;21.276;2023-03-24T13:17:52;100044.34;;;22.61;nan
46408;BME280;32110;45.724;21.276;2023-03-24T13:26:04;100056.03;;;22.65;nan
46408;BME280;32110;45.724;21.276;2023-03-24T13:31:24;100052.25;;;22.66;nan
46408;BME280;32110;45.724;21.276;2023-03-24T13:33:52;100061.75;;;22.72;nan
46408;BME280;32110;45.724;21.276;2023-03-24T13:36:42;99987.34;;;22.82;nan
46408;BME280;32110;45.724;21.276;2023-03-24T13:39:18;99979.28;;;22.82;nan
46408;BME280;32110;45.724;21.276;2023-03-24T13:41:50;100000.28;;;22.88;nan
46408;BME280;32110;45.724;21.276;2023-03-24T13:47:05;99990.34;;;22.89;nan
46408;BME280;32110;45.724;21.276;2023-03-24T13:49:33;99998.72;;;22.87;nan
46408;BME280;32110;45.724;21.276;2023-03-24T13:52:02;99984.34;;;22.83;nan
46408;BME280;32110;45.724;21.276;2023-03-24T13:54:29;99959.41;;;22.83;nan
46408;BME280;32110;45.724;21.276;2023-03-24T13:57:14;99958.13;;;22.89;nan
46408;BME280;32110;45.724;21.276;2023-03-24T14:02:43;99968.25;;;22.92;nan
46408;BME280;32110;45.724;21.276;2023-03-24T14:07:47;99917.53;;;22.90;nan
46408;BME280;32110;45.724;21.276;2023-03-24T14:15:54;99954.03;;;23.00;nan
46408;BME280;32110;45.724;21.276;2023-03-24T14:21:07;99927.34;;;23.04;nan
46408;BME280;32110;45.724;21.276;2023-03-24T14:23:40;99941.09;;;23.02;nan
46408;BME280;32110;45.724;21.276;2023-03-24T14:26:15;99907.28;;;23.01;nan
46408;BME280;32110;45.724;21.276;2023-03-24T14:28:54;99921.66;;;22.97;nan
46408;BME280;32110;45.724;21.276;2023-03-24T14:31:30;99923.69;;;22.91;nan
46408;BME280;32110;45.724;21.276;2023-03-24T14:34:12;99915.97;;;22.89;nan
46408;BME280;32110;45.724;21.276;2023-03-24T14:39:35;99939.66;;;22.87;nan
46408;BME280;32110;45.724;21.276;2023-03-24T14:47:58;99906.38;;;22.80;nan
46408;BME280;32110;45.724;21.276;2023-03-24T14:50:26;99903.50;;;22.85;nan
46408;BME280;32110;45.724;21.276;2023-03-24T14:52:54;99893.84;;;22.84;nan
46408;BME280;32110;45.724;21.276;2023-03-24T14:55:21;99898.63;;;22.78;nan
46408;BME280;32110;45.724;21.276;2023-03-24T14:57:54;99897.06;;;22.77;nan
46408;BME280;32110;45.724;21.276;2023-03-24T15:02:49;99858.06;;;22.62;nan
46408;BME280;32110;45.724;21.276;2023-03-24T15:10:38;99867.72;;;22.46;nan
46408;BME280;32110;45.724;21.276;2023-03-24T15:13:04;99880.03;;;22.38;nan
46408;BME280;32110;45.724;21.276;2023-03-24T15:15:30;99871.19;;;22.38;nan
46408;BME280;32110;45.724;21.276;2023-03-24T15:17:55;99863.00;;;22.34;nan
46408;BME280;32110;45.724;21.276;2023-03-24T15:22:48;99871.53;;;22.27;nan
46408;BME280;32110;45.724;21.276;2023-03-24T15:25:15;99833.94;;;22.19;nan
46408;BME280;32110;45.724;21.276;2023-03-24T15:27:48;99863.28;;;22.15;nan
46408;BME280;32110;45.724;21.276;2023-03-24T15:30:14;99888.38;;;22.11;nan
46408;BME280;32110;45.724;21.276;2023-03-24T15:32:40;99862.50;;;22.06;nan
46408;BME280;32110;45.724;21.276;2023-03-24T15:35:15;99884.09;;;22.01;nan
46408;BME280;32110;45.724;21.276;2023-03-24T15:37:43;99886.59;;;21.97;nan
46408;BME280;32110;45.724;21.276;2023-03-24T15:42:50;99880.63;;;21.92;nan
46408;BME280;32110;45.724;21.276;2023-03-24T15:45:36;99902.22;;;21.86;nan
46408;BME280;32110;45.724;21.276;2023-03-24T15:48:12;99886.13;;;21.86;nan
46408;BME280;32110;45.724;21.276;2023-03-24T15:50:40;99850.97;;;21.79;nan
46408;BME280;32110;45.724;21.276;2023-03-24T15:55:43;99872.56;;;21.74;nan
46408;BME280;32110;45.724;21.276;2023-03-24T15:58:25;99883.72;;;21.76;nan
46408;BME280;32110;45.724;21.276;2023-03-24T16:00:59;99876.00;;;21.75;nan
46408;BME280;32110;45.724;21.276;2023-03-24T16:03:28;99837.84;;;21.69;nan
46408;BME280;32110;45.724;21.276;2023-03-24T16:05:55;99861.50;;;21.67;nan
46408;BME280;32110;45.724;21.276;2023-03-24T16:08:34;99866.38;;;21.65;nan
46408;BME280;32110;45.724;21.276;2023-03-24T16:11:05;99863.53;;;21.61;nan
46408;BME280;32110;45.724;21.276;2023-03-24T16:13:35;99853.75;;;21.57;nan
46408;BME280;32110;45.724;21.276;2023-03-24T16:18:40;99843.81;;;21.49;nan
46408;BME280;32110;45.724;21.276;2023-03-24T16:21:13;99857.34;;;21.43;nan
46408;BME280;32110;45.724;21.276;2023-03-24T16:23:39;99850.19;;;21.39;nan
46408;BME280;32110;45.724;21.276;2023-03-24T16:28:36;99850.31;;;21.25;nan
46408;BME280;32110;45.724;21.276;2023-03-24T16:31:03;99845.09;;;21.20;nan
46408;BME280;32110;45.724;21.276;2023-03-24T16:33:29;99845.06;;;21.11;nan
46408;BME280;32110;45.724;21.276;2023-03-24T16:35:55;99843.28;;;21.07;nan
46408;BME280;32110;45.724;21.276;2023-03-24T16:38:20;99825.13;;;20.95;nan
46408;BME280;32110;45.724;21.276;2023-03-24T16:40:51;99795.34;;;20.88;nan
46408;BME280;32110;45.724;21.276;2023-03-24T16:48:10;99821.38;;;20.65;nan
46408;BME280;32110;45.724;21.276;2023-03-24T16:50:38;99833.28;;;20.58;nan
46408;BME280;32110;45.724;21.276;2023-03-24T16:53:04;99872.06;;;20.47;nan
46408;BME280;32110;45.724;21.276;2023-03-24T16:55:31;99838.38;;;20.46;nan
46408;BME280;32110;45.724;21.276;2023-03-24T16:57:56;99808.44;;;20.35;nan
46408;BME280;32110;45.724;21.276;2023-03-24T17:00:22;99796.47;;;20.33;nan
46408;BME280;32110;45.724;21.276;2023-03-24T17:05:20;99843.25;;;20.22;nan
46408;BME280;32110;45.724;21.276;2023-03-24T17:07:47;99824.06;;;20.06;nan
46408;BME280;32110;45.724;21.276;2023-03-24T17:10:13;99820.44;;;20.02;nan
46408;BME280;32110;45.724;21.276;2023-03-24T17:15:05;99842.22;;;19.95;nan
46408;BME280;32110;45.724;21.276;2023-03-24T17:17:31;99848.59;;;19.85;nan
46408;BME280;32110;45.724;21.276;2023-03-24T17:19:56;99835.13;;;19.76;nan
46408;BME280;32110;45.724;21.276;2023-03-24T17:22:22;99834.75;;;19.69;nan
46408;BME280;32110;45.724;21.276;2023-03-24T17:24:50;99838.91;;;19.62;nan
46408;BME280;32110;45.724;21.276;2023-03-24T17:27:22;99831.38;;;19.50;nan
46408;BME280;32110;45.724;21.276;2023-03-24T17:29:48;99875.59;;;19.42;nan
46408;BME280;32110;45.724;21.276;2023-03-24T17:32:13;99805.88;;;19.30;nan
46408;BME280;32110;45.724;21.276;2023-03-24T17:34:44;99844.16;;;19.25;nan
46408;BME280;32110;45.724;21.276;2023-03-24T17:37:09;99832.06;;;19.14;nan
46408;BME280;32110;45.724;21.276;2023-03-24T17:39:35;99831.97;;;19.05;nan
46408;BME280;32110;45.724;21.276;2023-03-24T17:42:00;99839.88;;;18.97;nan
46408;BME280;32110;45.724;21.276;2023-03-24T17:44:26;99830.97;;;18.87;nan
46408;BME280;32110;45.724;21.276;2023-03-24T17:46:52;99822.84;;;18.79;nan
46408;BME280;32110;45.724;21.276;2023-03-24T17:49:17;99826.94;;;18.71;nan
46408;BME280;32110;45.724;21.276;2023-03-24T17:51:43;99838.28;;;18.63;nan
46408;BME280;32110;45.724;21.276;2023-03-24T17:56:37;99832.41;;;18.47;nan
46408;BME280;32110;45.724;21.276;2023-03-24T17:59:03;99808.28;;;18.38;nan
46408;BME280;32110;45.724;21.276;2023-03-24T18:08:45;99815.81;;;17.98;nan
46408;BME280;32110;45.724;21.276;2023-03-24T18:13:37;99807.34;;;17.72;nan
46408;BME280;32110;45.724;21.276;2023-03-24T19:21:46;99802.06;;;16.36;nan
46408;BME280;32110;45.724;21.276;2023-03-24T20:32:16;99830.25;;;15.13;nan
46408;BME280;32110;45.724;21.276;2023-03-24T21:30:43;99869.03;;;14.73;nan
